sensor_id;sensor_type;location;lat;lon;timestamp;temperature;humidity
40600;DHT22;26309;50.924;4.754;2023-03-05T00:00:44;6.80;99.90
40600;DHT22;26309;50.924;4.754;2023-03-05T00:03:10;6.60;99.90
40600;DHT22;26309;50.924;4.754;2023-03-05T00:05:36;6.60;99.90
40600;DHT22;26309;50.924;4.754;2023-03-05T00:08:01;6.50;99.90
40600;DHT22;26309;50.924;4.754;2023-03-05T00:10:27;6.60;99.90
40600;DHT22;26309;50.924;4.754;2023-03-05T00:12:53;6.70;99.90
40600;DHT22;26309;50.924;4.754;2023-03-05T00:15:19;6.60;99.90
40600;DHT22;26309;50.924;4.754;2023-03-05T00:17:45;6.80;99.90
40600;DHT22;26309;50.924;4.754;2023-03-05T00:20:11;6.80;99.90
40600;DHT22;26309;50.924;4.754;2023-03-05T00:22:37;6.80;99.90
40600;DHT22;26309;50.924;4.754;2023-03-05T00:25:04;6.90;99.90
40600;DHT22;26309;50.924;4.754;2023-03-05T00:27:30;6.90;99.90
40600;DHT22;26309;50.924;4.754;2023-03-05T00:29:58;6.80;99.90
40600;DHT22;26309;50.924;4.754;2023-03-05T00:32:24;6.60;99.90
40600;DHT22;26309;50.924;4.754;2023-03-05T00:34:50;6.60;99.90
40600;DHT22;26309;50.924;4.754;2023-03-05T00:37:16;6.50;99.90
40600;DHT22;26309;50.924;4.754;2023-03-05T00:39:43;6.60;99.90
40600;DHT22;26309;50.924;4.754;2023-03-05T00:42:09;6.70;99.90
40600;DHT22;26309;50.924;4.754;2023-03-05T00:44:35;6.70;99.90
40600;DHT22;26309;50.924;4.754;2023-03-05T00:47:01;6.70;99.90
40600;DHT22;26309;50.924;4.754;2023-03-05T00:49:27;6.80;99.90
40600;DHT22;26309;50.924;4.754;2023-03-05T00:51:53;6.90;99.90
40600;DHT22;26309;50.924;4.754;2023-03-05T00:54:19;6.90;99.90
40600;DHT22;26309;50.924;4.754;2023-03-05T00:56:45;6.90;99.90
40600;DHT22;26309;50.924;4.754;2023-03-05T00:59:12;6.80;99.90
40600;DHT22;26309;50.924;4.754;2023-03-05T01:01:38;6.60;99.90
40600;DHT22;26309;50.924;4.754;2023-03-05T01:04:04;6.70;99.90
40600;DHT22;26309;50.924;4.754;2023-03-05T01:06:30;6.70;99.90
40600;DHT22;26309;50.924;4.754;2023-03-05T01:08:56;6.70;99.90
40600;DHT22;26309;50.924;4.754;2023-03-05T01:11:23;6.60;99.90
40600;DHT22;26309;50.924;4.754;2023-03-05T01:13:49;6.60;99.90
40600;DHT22;26309;50.924;4.754;2023-03-05T01:16:15;6.70;99.90
40600;DHT22;26309;50.924;4.754;2023-03-05T01:18:41;6.80;99.90
40600;DHT22;26309;50.924;4.754;2023-03-05T01:21:07;6.80;99.90
40600;DHT22;26309;50.924;4.754;2023-03-05T01:23:34;6.90;99.90
40600;DHT22;26309;50.924;4.754;2023-03-05T01:26:02;6.90;99.90
40600;DHT22;26309;50.924;4.754;2023-03-05T01:28:28;6.90;99.90
40600;DHT22;26309;50.924;4.754;2023-03-05T01:30:54;6.90;99.90
40600;DHT22;26309;50.924;4.754;2023-03-05T01:33:20;6.90;99.90
40600;DHT22;26309;50.924;4.754;2023-03-05T01:35:47;6.90;99.90
40600;DHT22;26309;50.924;4.754;2023-03-05T01:38:14;6.90;99.90
40600;DHT22;26309;50.924;4.754;2023-03-05T01:40:40;6.80;99.90
40600;DHT22;26309;50.924;4.754;2023-03-05T01:45:37;6.80;99.90
40600;DHT22;26309;50.924;4.754;2023-03-05T01:48:03;6.70;99.90
40600;DHT22;26309;50.924;4.754;2023-03-05T01:50:29;6.70;99.90
40600;DHT22;26309;50.924;4.754;2023-03-05T01:53:00;6.60;99.90
40600;DHT22;26309;50.924;4.754;2023-03-05T01:55:28;6.60;99.90
40600;DHT22;26309;50.924;4.754;2023-03-05T01:58:01;6.60;99.90
40600;DHT22;26309;50.924;4.754;2023-03-05T02:00:34;6.60;99.90
40600;DHT22;26309;50.924;4.754;2023-03-05T02:03:05;6.60;99.90
40600;DHT22;26309;50.924;4.754;2023-03-05T02:05:34;6.50;99.90
40600;DHT22;26309;50.924;4.754;2023-03-05T02:08:03;6.50;99.90
40600;DHT22;26309;50.924;4.754;2023-03-05T02:10:41;6.40;99.90
40600;DHT22;26309;50.924;4.754;2023-03-05T02:13:10;6.50;99.90
40600;DHT22;26309;50.924;4.754;2023-03-05T02:15:38;6.70;99.90
40600;DHT22;26309;50.924;4.754;2023-03-05T02:18:05;6.70;99.90
40600;DHT22;26309;50.924;4.754;2023-03-05T02:20:45;6.70;99.90
40600;DHT22;26309;50.924;4.754;2023-03-05T02:23:11;6.80;99.90
40600;DHT22;26309;50.924;4.754;2023-03-05T02:25:37;6.70;99.90
40600;DHT22;26309;50.924;4.754;2023-03-05T02:30:46;6.60;99.90
40600;DHT22;26309;50.924;4.754;2023-03-05T02:33:14;6.60;99.90
40600;DHT22;26309;50.924;4.754;2023-03-05T02:35:40;6.60;99.90
40600;DHT22;26309;50.924;4.754;2023-03-05T02:38:09;6.60;99.90
40600;DHT22;26309;50.924;4.754;2023-03-05T02:40:35;6.50;99.90
40600;DHT22;26309;50.924;4.754;2023-03-05T02:43:01;6.50;99.90
40600;DHT22;26309;50.924;4.754;2023-03-05T02:45:27;6.50;99.90
40600;DHT22;26309;50.924;4.754;2023-03-05T02:47:52;6.50;99.90
40600;DHT22;26309;50.924;4.754;2023-03-05T02:50:20;6.50;99.90
40600;DHT22;26309;50.924;4.754;2023-03-05T02:52:46;6.50;99.90
40600;DHT22;26309;50.924;4.754;2023-03-05T02:55:12;6.40;99.90
40600;DHT22;26309;50.924;4.754;2023-03-05T02:57:38;6.40;99.90
40600;DHT22;26309;50.924;4.754;2023-03-05T03:00:04;6.40;99.90
40600;DHT22;26309;50.924;4.754;2023-03-05T03:02:31;6.40;99.90
40600;DHT22;26309;50.924;4.754;2023-03-05T03:04:57;6.60;99.90
40600;DHT22;26309;50.924;4.754;2023-03-05T03:07:23;6.60;99.90
40600;DHT22;26309;50.924;4.754;2023-03-05T03:09:48;6.50;99.90
40600;DHT22;26309;50.924;4.754;2023-03-05T03:12:15;6.60;99.90
40600;DHT22;26309;50.924;4.754;2023-03-05T03:14:41;6.60;99.90
40600;DHT22;26309;50.924;4.754;2023-03-05T03:17:10;6.70;99.90
40600;DHT22;26309;50.924;4.754;2023-03-05T03:19:37;6.50;99.90
40600;DHT22;26309;50.924;4.754;2023-03-05T03:22:04;6.50;99.90
40600;DHT22;26309;50.924;4.754;2023-03-05T03:24:30;6.50;99.90
40600;DHT22;26309;50.924;4.754;2023-03-05T03:26:56;6.60;99.90
40600;DHT22;26309;50.924;4.754;2023-03-05T03:29:22;6.70;99.90
40600;DHT22;26309;50.924;4.754;2023-03-05T03:31:48;6.70;99.90
40600;DHT22;26309;50.924;4.754;2023-03-05T03:34:15;6.60;99.90
40600;DHT22;26309;50.924;4.754;2023-03-05T03:36:42;6.50;99.90
40600;DHT22;26309;50.924;4.754;2023-03-05T03:39:09;6.40;99.90
40600;DHT22;26309;50.924;4.754;2023-03-05T03:41:37;6.40;99.90
40600;DHT22;26309;50.924;4.754;2023-03-05T03:44:05;6.40;99.90
40600;DHT22;26309;50.924;4.754;2023-03-05T03:46:34;6.40;99.90
40600;DHT22;26309;50.924;4.754;2023-03-05T03:49:00;6.40;99.90
40600;DHT22;26309;50.924;4.754;2023-03-05T03:51:26;6.40;99.90
40600;DHT22;26309;50.924;4.754;2023-03-05T03:53:52;6.40;99.90
40600;DHT22;26309;50.924;4.754;2023-03-05T03:56:18;6.30;99.90
40600;DHT22;26309;50.924;4.754;2023-03-05T03:58:44;6.50;99.90
40600;DHT22;26309;50.924;4.754;2023-03-05T04:01:10;6.40;99.90
40600;DHT22;26309;50.924;4.754;2023-03-05T04:03:36;6.40;99.90
40600;DHT22;26309;50.924;4.754;2023-03-05T04:06:02;6.30;99.90
40600;DHT22;26309;50.924;4.754;2023-03-05T04:08:29;6.20;99.90
40600;DHT22;26309;50.924;4.754;2023-03-05T04:10:55;6.30;99.90
40600;DHT22;26309;50.924;4.754;2023-03-05T04:13:21;6.20;99.90
40600;DHT22;26309;50.924;4.754;2023-03-05T04:15:47;6.10;99.90
40600;DHT22;26309;50.924;4.754;2023-03-05T04:18:14;6.10;99.90
40600;DHT22;26309;50.924;4.754;2023-03-05T04:20:40;6.10;99.90
40600;DHT22;26309;50.924;4.754;2023-03-05T04:23:06;6.30;99.90
40600;DHT22;26309;50.924;4.754;2023-03-05T04:25:32;6.30;99.90
40600;DHT22;26309;50.924;4.754;2023-03-05T04:27:58;6.20;99.90
40600;DHT22;26309;50.924;4.754;2023-03-05T04:30:23;6.20;99.90
40600;DHT22;26309;50.924;4.754;2023-03-05T04:32:49;6.10;99.90
40600;DHT22;26309;50.924;4.754;2023-03-05T04:35:16;6.10;99.90
40600;DHT22;26309;50.924;4.754;2023-03-05T04:37:42;6.00;99.90
40600;DHT22;26309;50.924;4.754;2023-03-05T04:40:08;5.90;99.90
40600;DHT22;26309;50.924;4.754;2023-03-05T04:42:34;5.90;99.90
40600;DHT22;26309;50.924;4.754;2023-03-05T04:45:00;5.90;99.90
40600;DHT22;26309;50.924;4.754;2023-03-05T04:47:26;5.90;99.90
40600;DHT22;26309;50.924;4.754;2023-03-05T04:49:52;5.90;99.90
40600;DHT22;26309;50.924;4.754;2023-03-05T04:52:18;5.90;99.90
40600;DHT22;26309;50.924;4.754;2023-03-05T04:54:44;5.90;99.90
40600;DHT22;26309;50.924;4.754;2023-03-05T04:57:10;5.90;99.90
40600;DHT22;26309;50.924;4.754;2023-03-05T04:59:37;6.10;99.90
40600;DHT22;26309;50.924;4.754;2023-03-05T05:02:03;6.00;99.90
40600;DHT22;26309;50.924;4.754;2023-03-05T05:04:29;6.30;99.90
40600;DHT22;26309;50.924;4.754;2023-03-05T05:06:56;6.30;99.90
40600;DHT22;26309;50.924;4.754;2023-03-05T05:09:23;6.30;99.90
40600;DHT22;26309;50.924;4.754;2023-03-05T05:11:49;6.10;99.90
40600;DHT22;26309;50.924;4.754;2023-03-05T05:14:15;6.20;99.90
40600;DHT22;26309;50.924;4.754;2023-03-05T05:16:41;6.10;99.90
40600;DHT22;26309;50.924;4.754;2023-03-05T05:19:07;6.10;99.90
40600;DHT22;26309;50.924;4.754;2023-03-05T05:21:33;6.10;99.90
40600;DHT22;26309;50.924;4.754;2023-03-05T05:23:58;6.20;99.90
40600;DHT22;26309;50.924;4.754;2023-03-05T05:26:25;6.10;99.90
40600;DHT22;26309;50.924;4.754;2023-03-05T05:28:53;6.10;99.90
40600;DHT22;26309;50.924;4.754;2023-03-05T05:31:20;6.00;99.90
40600;DHT22;26309;50.924;4.754;2023-03-05T05:33:45;5.90;99.90
40600;DHT22;26309;50.924;4.754;2023-03-05T05:36:13;5.90;99.90
40600;DHT22;26309;50.924;4.754;2023-03-05T05:38:40;5.90;99.90
40600;DHT22;26309;50.924;4.754;2023-03-05T05:41:18;6.00;99.90
40600;DHT22;26309;50.924;4.754;2023-03-05T05:43:44;6.00;99.90
40600;DHT22;26309;50.924;4.754;2023-03-05T05:46:12;6.10;99.90
40600;DHT22;26309;50.924;4.754;2023-03-05T05:48:39;6.10;99.90
40600;DHT22;26309;50.924;4.754;2023-03-05T05:51:10;6.10;99.90
40600;DHT22;26309;50.924;4.754;2023-03-05T05:53:37;6.20;99.90
40600;DHT22;26309;50.924;4.754;2023-03-05T05:56:05;6.20;99.90
40600;DHT22;26309;50.924;4.754;2023-03-05T05:58:31;6.10;99.90
40600;DHT22;26309;50.924;4.754;2023-03-05T06:01:00;6.00;99.90
40600;DHT22;26309;50.924;4.754;2023-03-05T06:03:26;6.00;99.90
40600;DHT22;26309;50.924;4.754;2023-03-05T06:05:52;6.10;99.90
40600;DHT22;26309;50.924;4.754;2023-03-05T06:08:18;6.10;99.90
40600;DHT22;26309;50.924;4.754;2023-03-05T06:10:44;6.10;99.90
40600;DHT22;26309;50.924;4.754;2023-03-05T06:13:17;6.10;99.90
40600;DHT22;26309;50.924;4.754;2023-03-05T06:15:43;6.10;99.90
40600;DHT22;26309;50.924;4.754;2023-03-05T06:18:09;6.00;99.90
40600;DHT22;26309;50.924;4.754;2023-03-05T06:20:35;6.10;99.90
40600;DHT22;26309;50.924;4.754;2023-03-05T06:23:01;6.00;99.90
40600;DHT22;26309;50.924;4.754;2023-03-05T06:25:27;6.00;99.90
40600;DHT22;26309;50.924;4.754;2023-03-05T06:27:53;5.90;99.90
40600;DHT22;26309;50.924;4.754;2023-03-05T06:30:19;6.10;99.90
40600;DHT22;26309;50.924;4.754;2023-03-05T06:32:45;6.20;99.90
40600;DHT22;26309;50.924;4.754;2023-03-05T06:35:11;6.20;99.90
40600;DHT22;26309;50.924;4.754;2023-03-05T06:37:37;6.30;99.90
40600;DHT22;26309;50.924;4.754;2023-03-05T06:40:03;6.30;99.90
40600;DHT22;26309;50.924;4.754;2023-03-05T06:42:30;6.30;99.90
40600;DHT22;26309;50.924;4.754;2023-03-05T06:44:56;6.20;99.90
40600;DHT22;26309;50.924;4.754;2023-03-05T06:47:21;6.00;99.90
40600;DHT22;26309;50.924;4.754;2023-03-05T06:49:48;6.10;99.90
40600;DHT22;26309;50.924;4.754;2023-03-05T06:52:14;6.00;99.90
40600;DHT22;26309;50.924;4.754;2023-03-05T06:54:40;6.10;99.90
40600;DHT22;26309;50.924;4.754;2023-03-05T06:57:06;6.20;99.90
40600;DHT22;26309;50.924;4.754;2023-03-05T06:59:32;6.20;99.90
40600;DHT22;26309;50.924;4.754;2023-03-05T07:01:58;6.20;99.90
40600;DHT22;26309;50.924;4.754;2023-03-05T07:04:23;6.10;99.90
40600;DHT22;26309;50.924;4.754;2023-03-05T07:06:49;6.20;99.90
40600;DHT22;26309;50.924;4.754;2023-03-05T07:09:16;6.20;99.90
40600;DHT22;26309;50.924;4.754;2023-03-05T07:11:42;6.20;99.90
40600;DHT22;26309;50.924;4.754;2023-03-05T07:14:08;6.40;99.90
40600;DHT22;26309;50.924;4.754;2023-03-05T07:16:34;6.50;99.90
40600;DHT22;26309;50.924;4.754;2023-03-05T07:19:02;6.50;99.90
40600;DHT22;26309;50.924;4.754;2023-03-05T07:21:31;6.50;99.90
40600;DHT22;26309;50.924;4.754;2023-03-05T07:23:59;6.50;99.90
40600;DHT22;26309;50.924;4.754;2023-03-05T07:26:26;6.40;99.90
40600;DHT22;26309;50.924;4.754;2023-03-05T07:28:53;6.30;99.90
40600;DHT22;26309;50.924;4.754;2023-03-05T07:31:21;6.40;99.90
40600;DHT22;26309;50.924;4.754;2023-03-05T07:33:52;6.40;99.90
40600;DHT22;26309;50.924;4.754;2023-03-05T07:36:18;6.50;99.90
40600;DHT22;26309;50.924;4.754;2023-03-05T07:38:45;6.50;99.90
40600;DHT22;26309;50.924;4.754;2023-03-05T07:41:13;6.60;99.90
40600;DHT22;26309;50.924;4.754;2023-03-05T07:43:45;6.60;99.90
40600;DHT22;26309;50.924;4.754;2023-03-05T07:46:13;6.60;99.90
40600;DHT22;26309;50.924;4.754;2023-03-05T07:48:39;6.90;99.90
40600;DHT22;26309;50.924;4.754;2023-03-05T07:51:11;7.00;99.90
40600;DHT22;26309;50.924;4.754;2023-03-05T07:53:40;7.10;99.90
40600;DHT22;26309;50.924;4.754;2023-03-05T07:56:07;6.70;99.90
40600;DHT22;26309;50.924;4.754;2023-03-05T07:58:33;6.60;99.90
40600;DHT22;26309;50.924;4.754;2023-03-05T08:00:58;6.50;99.90
40600;DHT22;26309;50.924;4.754;2023-03-05T08:03:24;6.80;99.90
40600;DHT22;26309;50.924;4.754;2023-03-05T08:05:50;6.50;99.90
40600;DHT22;26309;50.924;4.754;2023-03-05T08:08:16;6.60;99.90
40600;DHT22;26309;50.924;4.754;2023-03-05T08:10:43;6.80;99.90
40600;DHT22;26309;50.924;4.754;2023-03-05T08:13:09;6.80;99.90
40600;DHT22;26309;50.924;4.754;2023-03-05T08:15:38;6.70;99.90
40600;DHT22;26309;50.924;4.754;2023-03-05T08:18:04;6.90;99.90
40600;DHT22;26309;50.924;4.754;2023-03-05T08:20:33;7.10;99.90
40600;DHT22;26309;50.924;4.754;2023-03-05T08:22:59;7.10;99.90
40600;DHT22;26309;50.924;4.754;2023-03-05T08:25:25;7.20;99.90
40600;DHT22;26309;50.924;4.754;2023-03-05T08:27:51;7.20;99.90
40600;DHT22;26309;50.924;4.754;2023-03-05T08:30:19;7.20;99.90
40600;DHT22;26309;50.924;4.754;2023-03-05T08:32:48;7.30;99.90
40600;DHT22;26309;50.924;4.754;2023-03-05T08:35:14;7.50;99.90
40600;DHT22;26309;50.924;4.754;2023-03-05T08:37:40;7.50;99.90
40600;DHT22;26309;50.924;4.754;2023-03-05T08:40:06;7.30;99.90
40600;DHT22;26309;50.924;4.754;2023-03-05T08:42:32;7.30;99.90
40600;DHT22;26309;50.924;4.754;2023-03-05T08:44:58;7.60;99.90
40600;DHT22;26309;50.924;4.754;2023-03-05T08:47:24;7.40;99.90
40600;DHT22;26309;50.924;4.754;2023-03-05T08:49:51;7.40;99.90
40600;DHT22;26309;50.924;4.754;2023-03-05T08:52:23;7.40;99.90
40600;DHT22;26309;50.924;4.754;2023-03-05T08:54:49;7.30;99.90
40600;DHT22;26309;50.924;4.754;2023-03-05T08:57:15;7.50;99.90
40600;DHT22;26309;50.924;4.754;2023-03-05T08:59:41;7.10;99.90
40600;DHT22;26309;50.924;4.754;2023-03-05T09:02:12;6.70;99.90
40600;DHT22;26309;50.924;4.754;2023-03-05T09:04:38;6.70;99.90
40600;DHT22;26309;50.924;4.754;2023-03-05T09:07:04;7.00;99.90
40600;DHT22;26309;50.924;4.754;2023-03-05T09:09:31;7.00;99.90
40600;DHT22;26309;50.924;4.754;2023-03-05T09:12:01;7.10;99.90
40600;DHT22;26309;50.924;4.754;2023-03-05T09:14:27;7.20;99.90
40600;DHT22;26309;50.924;4.754;2023-03-05T09:16:54;7.30;99.90
40600;DHT22;26309;50.924;4.754;2023-03-05T09:19:20;7.30;99.90
40600;DHT22;26309;50.924;4.754;2023-03-05T09:21:46;7.10;99.90
40600;DHT22;26309;50.924;4.754;2023-03-05T09:24:12;6.90;99.90
40600;DHT22;26309;50.924;4.754;2023-03-05T09:26:38;6.60;99.90
40600;DHT22;26309;50.924;4.754;2023-03-05T09:29:07;6.40;99.90
40600;DHT22;26309;50.924;4.754;2023-03-05T09:31:36;6.40;99.90
40600;DHT22;26309;50.924;4.754;2023-03-05T09:34:04;6.20;99.90
40600;DHT22;26309;50.924;4.754;2023-03-05T09:36:31;6.00;99.90
40600;DHT22;26309;50.924;4.754;2023-03-05T09:38:57;5.70;99.90
40600;DHT22;26309;50.924;4.754;2023-03-05T09:46:49;5.30;99.90
40600;DHT22;26309;50.924;4.754;2023-03-05T09:52:49;5.60;99.90
40600;DHT22;26309;50.924;4.754;2023-03-05T09:58:13;5.70;99.90
40600;DHT22;26309;50.924;4.754;2023-03-05T10:00:55;6.00;99.90
40600;DHT22;26309;50.924;4.754;2023-03-05T10:04:12;6.20;99.90
40600;DHT22;26309;50.924;4.754;2023-03-05T10:10:08;6.60;99.90
40600;DHT22;26309;50.924;4.754;2023-03-05T10:12:47;6.90;99.90
40600;DHT22;26309;50.924;4.754;2023-03-05T10:21:09;7.20;99.90
40600;DHT22;26309;50.924;4.754;2023-03-05T10:27:13;7.60;99.90
40600;DHT22;26309;50.924;4.754;2023-03-05T10:30:01;7.40;99.90
40600;DHT22;26309;50.924;4.754;2023-03-05T10:35:20;7.80;99.90
40600;DHT22;26309;50.924;4.754;2023-03-05T10:40:37;7.80;99.90
40600;DHT22;26309;50.924;4.754;2023-03-05T10:46:03;8.50;99.90
40600;DHT22;26309;50.924;4.754;2023-03-05T10:54:03;8.60;99.90
40600;DHT22;26309;50.924;4.754;2023-03-05T10:56:36;8.90;99.90
40600;DHT22;26309;50.924;4.754;2023-03-05T10:59:02;8.70;99.90
40600;DHT22;26309;50.924;4.754;2023-03-05T11:01:28;8.50;99.90
40600;DHT22;26309;50.924;4.754;2023-03-05T11:04:04;8.20;99.90
40600;DHT22;26309;50.924;4.754;2023-03-05T11:14:46;8.00;99.90
40600;DHT22;26309;50.924;4.754;2023-03-05T11:17:33;8.20;99.90
40600;DHT22;26309;50.924;4.754;2023-03-05T11:23:19;8.20;99.90
40600;DHT22;26309;50.924;4.754;2023-03-05T11:26:17;8.30;99.90
40600;DHT22;26309;50.924;4.754;2023-03-05T11:31:24;8.70;99.90
40600;DHT22;26309;50.924;4.754;2023-03-05T11:34:00;8.70;99.90
40600;DHT22;26309;50.924;4.754;2023-03-05T11:41:37;8.70;99.90
40600;DHT22;26309;50.924;4.754;2023-03-05T11:44:11;8.70;99.90
40600;DHT22;26309;50.924;4.754;2023-03-05T11:46:45;8.90;99.90
40600;DHT22;26309;50.924;4.754;2023-03-05T11:49:15;9.20;99.90
40600;DHT22;26309;50.924;4.754;2023-03-05T11:54:20;8.40;99.90
40600;DHT22;26309;50.924;4.754;2023-03-05T11:56:48;8.50;99.90
40600;DHT22;26309;50.924;4.754;2023-03-05T11:59:29;8.70;99.90
40600;DHT22;26309;50.924;4.754;2023-03-05T12:01:59;9.00;99.90
40600;DHT22;26309;50.924;4.754;2023-03-05T12:04:25;9.10;99.90
40600;DHT22;26309;50.924;4.754;2023-03-05T12:06:57;9.40;99.90
40600;DHT22;26309;50.924;4.754;2023-03-05T12:14:50;9.60;99.90
40600;DHT22;26309;50.924;4.754;2023-03-05T12:17:32;9.70;99.90
40600;DHT22;26309;50.924;4.754;2023-03-05T12:22:36;9.10;99.90
40600;DHT22;26309;50.924;4.754;2023-03-05T12:25:31;9.10;99.90
40600;DHT22;26309;50.924;4.754;2023-03-05T12:27:58;8.70;99.90
40600;DHT22;26309;50.924;4.754;2023-03-05T12:33:03;9.00;99.90
40600;DHT22;26309;50.924;4.754;2023-03-05T12:35:37;9.40;99.90
40600;DHT22;26309;50.924;4.754;2023-03-05T12:38:31;9.40;99.90
40600;DHT22;26309;50.924;4.754;2023-03-05T12:46:39;9.80;99.90
40600;DHT22;26309;50.924;4.754;2023-03-05T12:51:52;9.90;99.90
40600;DHT22;26309;50.924;4.754;2023-03-05T12:54:27;9.60;99.90
40600;DHT22;26309;50.924;4.754;2023-03-05T12:56:56;9.60;99.90
40600;DHT22;26309;50.924;4.754;2023-03-05T12:59:27;9.40;99.90
40600;DHT22;26309;50.924;4.754;2023-03-05T13:02:03;9.30;99.90
40600;DHT22;26309;50.924;4.754;2023-03-05T13:04:36;9.00;99.90
40600;DHT22;26309;50.924;4.754;2023-03-05T13:07:14;8.80;99.90
40600;DHT22;26309;50.924;4.754;2023-03-05T13:09:54;8.40;99.90
40600;DHT22;26309;50.924;4.754;2023-03-05T13:12:21;8.30;99.90
40600;DHT22;26309;50.924;4.754;2023-03-05T13:14:56;8.30;99.90
40600;DHT22;26309;50.924;4.754;2023-03-05T13:17:58;8.50;99.90
40600;DHT22;26309;50.924;4.754;2023-03-05T13:20:32;8.80;99.90
40600;DHT22;26309;50.924;4.754;2023-03-05T13:23:21;8.90;99.90
40600;DHT22;26309;50.924;4.754;2023-03-05T13:28:34;9.10;99.90
40600;DHT22;26309;50.924;4.754;2023-03-05T13:31:11;9.00;99.90
40600;DHT22;26309;50.924;4.754;2023-03-05T13:33:38;8.80;99.90
40600;DHT22;26309;50.924;4.754;2023-03-05T13:36:04;8.80;99.90
40600;DHT22;26309;50.924;4.754;2023-03-05T13:38:42;8.70;99.90
40600;DHT22;26309;50.924;4.754;2023-03-05T13:43:59;8.40;99.90
40600;DHT22;26309;50.924;4.754;2023-03-05T13:46:28;8.10;99.90
40600;DHT22;26309;50.924;4.754;2023-03-05T13:48:55;7.90;99.90
40600;DHT22;26309;50.924;4.754;2023-03-05T13:51:21;7.70;99.90
40600;DHT22;26309;50.924;4.754;2023-03-05T13:53:48;7.70;99.90
40600;DHT22;26309;50.924;4.754;2023-03-05T13:56:17;7.80;99.90
40600;DHT22;26309;50.924;4.754;2023-03-05T13:58:56;7.90;99.90
40600;DHT22;26309;50.924;4.754;2023-03-05T14:01:30;7.50;99.90
40600;DHT22;26309;50.924;4.754;2023-03-05T14:04:07;7.60;99.90
40600;DHT22;26309;50.924;4.754;2023-03-05T14:12:20;7.10;99.90
40600;DHT22;26309;50.924;4.754;2023-03-05T14:14:47;6.80;99.90
40600;DHT22;26309;50.924;4.754;2023-03-05T14:17:40;6.70;99.90
40600;DHT22;26309;50.924;4.754;2023-03-05T14:22:41;6.40;99.90
40600;DHT22;26309;50.924;4.754;2023-03-05T14:25:29;6.10;99.90
40600;DHT22;26309;50.924;4.754;2023-03-05T14:28:42;5.90;99.90
40600;DHT22;26309;50.924;4.754;2023-03-05T14:30:54;5.80;99.90
40600;DHT22;26309;50.924;4.754;2023-03-05T14:33:26;6.00;99.90
40600;DHT22;26309;50.924;4.754;2023-03-05T14:35:53;6.10;99.90
40600;DHT22;26309;50.924;4.754;2023-03-05T14:38:24;6.30;99.90
40600;DHT22;26309;50.924;4.754;2023-03-05T14:40:50;6.50;99.90
40600;DHT22;26309;50.924;4.754;2023-03-05T14:43:18;6.40;99.90
40600;DHT22;26309;50.924;4.754;2023-03-05T14:45:44;6.40;99.90
40600;DHT22;26309;50.924;4.754;2023-03-05T14:48:13;6.60;99.90
40600;DHT22;26309;50.924;4.754;2023-03-05T14:50:44;6.80;99.90
40600;DHT22;26309;50.924;4.754;2023-03-05T14:53:23;6.80;99.90
40600;DHT22;26309;50.924;4.754;2023-03-05T14:55:53;6.50;99.90
40600;DHT22;26309;50.924;4.754;2023-03-05T14:58:27;6.40;99.90
40600;DHT22;26309;50.924;4.754;2023-03-05T15:00:54;6.60;99.90
40600;DHT22;26309;50.924;4.754;2023-03-05T15:03:22;6.70;99.90
40600;DHT22;26309;50.924;4.754;2023-03-05T15:05:50;6.90;99.90
40600;DHT22;26309;50.924;4.754;2023-03-05T15:08:20;6.90;99.90
40600;DHT22;26309;50.924;4.754;2023-03-05T15:10:47;6.90;99.90
40600;DHT22;26309;50.924;4.754;2023-03-05T15:13:14;6.70;99.90
40600;DHT22;26309;50.924;4.754;2023-03-05T15:15:41;6.80;99.90
40600;DHT22;26309;50.924;4.754;2023-03-05T15:18:13;6.70;99.90
40600;DHT22;26309;50.924;4.754;2023-03-05T15:20:39;6.80;99.90
40600;DHT22;26309;50.924;4.754;2023-03-05T15:23:06;6.90;99.90
40600;DHT22;26309;50.924;4.754;2023-03-05T15:25:32;7.00;99.90
40600;DHT22;26309;50.924;4.754;2023-03-05T15:27:58;7.10;99.90
40600;DHT22;26309;50.924;4.754;2023-03-05T15:30:32;7.10;99.90
40600;DHT22;26309;50.924;4.754;2023-03-05T15:33:11;7.40;99.90
40600;DHT22;26309;50.924;4.754;2023-03-05T15:35:40;7.40;99.90
40600;DHT22;26309;50.924;4.754;2023-03-05T15:38:06;7.40;99.90
40600;DHT22;26309;50.924;4.754;2023-03-05T15:40:33;7.30;99.90
40600;DHT22;26309;50.924;4.754;2023-03-05T15:43:01;7.50;99.90
40600;DHT22;26309;50.924;4.754;2023-03-05T15:45:27;7.60;99.90
40600;DHT22;26309;50.924;4.754;2023-03-05T15:47:56;7.60;99.90
40600;DHT22;26309;50.924;4.754;2023-03-05T15:50:26;7.60;99.90
40600;DHT22;26309;50.924;4.754;2023-03-05T15:52:53;7.50;99.90
40600;DHT22;26309;50.924;4.754;2023-03-05T15:55:19;7.60;99.90
40600;DHT22;26309;50.924;4.754;2023-03-05T15:57:49;7.60;99.90
40600;DHT22;26309;50.924;4.754;2023-03-05T16:00:24;7.50;99.90
40600;DHT22;26309;50.924;4.754;2023-03-05T16:02:52;7.30;99.90
40600;DHT22;26309;50.924;4.754;2023-03-05T16:05:22;7.10;99.90
40600;DHT22;26309;50.924;4.754;2023-03-05T16:07:48;7.00;99.90
40600;DHT22;26309;50.924;4.754;2023-03-05T16:10:18;6.80;99.90
40600;DHT22;26309;50.924;4.754;2023-03-05T16:12:48;6.60;99.90
40600;DHT22;26309;50.924;4.754;2023-03-05T16:15:20;6.50;99.90
40600;DHT22;26309;50.924;4.754;2023-03-05T16:17:53;6.60;99.90
40600;DHT22;26309;50.924;4.754;2023-03-05T16:20:20;6.60;99.90
40600;DHT22;26309;50.924;4.754;2023-03-05T16:22:47;6.50;99.90
40600;DHT22;26309;50.924;4.754;2023-03-05T16:25:13;6.20;99.90
40600;DHT22;26309;50.924;4.754;2023-03-05T16:27:44;6.30;99.90
40600;DHT22;26309;50.924;4.754;2023-03-05T16:30:11;6.40;99.90
40600;DHT22;26309;50.924;4.754;2023-03-05T16:32:38;6.40;99.90
40600;DHT22;26309;50.924;4.754;2023-03-05T16:35:04;6.50;99.90
40600;DHT22;26309;50.924;4.754;2023-03-05T16:37:31;6.50;99.90
40600;DHT22;26309;50.924;4.754;2023-03-05T16:39:58;6.30;99.90
40600;DHT22;26309;50.924;4.754;2023-03-05T16:42:24;6.00;99.90
40600;DHT22;26309;50.924;4.754;2023-03-05T16:44:50;6.00;99.90
40600;DHT22;26309;50.924;4.754;2023-03-05T16:47:17;5.70;99.90
40600;DHT22;26309;50.924;4.754;2023-03-05T16:49:43;5.70;99.90
40600;DHT22;26309;50.924;4.754;2023-03-05T16:52:09;5.70;99.90
40600;DHT22;26309;50.924;4.754;2023-03-05T16:54:36;5.90;99.90
40600;DHT22;26309;50.924;4.754;2023-03-05T16:57:07;6.00;99.90
40600;DHT22;26309;50.924;4.754;2023-03-05T16:59:34;6.00;99.90
40600;DHT22;26309;50.924;4.754;2023-03-05T17:02:00;5.90;99.90
40600;DHT22;26309;50.924;4.754;2023-03-05T17:04:28;6.00;99.90
40600;DHT22;26309;50.924;4.754;2023-03-05T17:06:55;5.90;99.90
40600;DHT22;26309;50.924;4.754;2023-03-05T17:09:22;5.70;99.90
40600;DHT22;26309;50.924;4.754;2023-03-05T17:11:52;5.50;99.90
40600;DHT22;26309;50.924;4.754;2023-03-05T17:14:20;5.60;99.90
40600;DHT22;26309;50.924;4.754;2023-03-05T17:16:46;5.60;99.90
40600;DHT22;26309;50.924;4.754;2023-03-05T17:19:12;5.80;99.90
40600;DHT22;26309;50.924;4.754;2023-03-05T17:21:38;6.00;99.90
40600;DHT22;26309;50.924;4.754;2023-03-05T17:24:04;6.10;99.90
40600;DHT22;26309;50.924;4.754;2023-03-05T17:26:30;6.00;99.90
40600;DHT22;26309;50.924;4.754;2023-03-05T17:29:06;6.00;99.90
40600;DHT22;26309;50.924;4.754;2023-03-05T17:31:31;6.00;99.90